Forside
METAR-TAF:

METAR-TAF

Lufthavne :

RAF

Spadeadam, England

Breddekreds: 55-03N, længdekreds: 002-33W, højde: 325 m

Aktuelle vejr

Denne rapport blev lavet for 43 minutter siden, kl. 15:50 UTC
Vind 16 kt fra vest
Temperatur 4°C
Fugtighed 81%
Tryk 1013 hPa
Sigt 10 km eller mere

METAR: EGOM 231550Z AUTO 28016KT 9999 SCT026/// 04/01 Q1013 RERA

Tid: 16:33 (16:33 UTC)


TAF: fraværende

Vejrobservationer og prognoser fra mere end 4000 lufthavne (METAR og TAF).

De gule og røde prikker repræsenterer de meteorologiske stationer.

Flyt musen over at se navnet på stationen.

Så klik over at se vejr observationer og prognoser.

At skifte det kort: Klik på de grønne knapper med et sort kors for at zoome ind; på den grønne knap med en bindestreg for at zoome ud; eller på de grønne pile for tilstødende kort.


METAR-TAF: